Terminal Aerodrome Forecast
Issued by NWS Burlington, VT

Home | Current Version | Previous Version | Text Only | Print | Product List | Glossary On
Versions: 1 2 3 4 5 6 7 8 9 10 11 12 13 14 15 16 17 18
000
FTUS41 KBTV 120535
TAFBTV
TAF
KBTV 120535Z 1206/1306 VRB04KT P6SM OVC060
     FM120700 12008KT P6SM VCSH OVC030
     FM121300 14013G20KT 1 1/2SM -SN BR OVC025
     FM122200 08004KT 1 1/2SM -SN BR OVC015
     FM130000 00000KT P6SM VCSH OVC015
     FM130100 32007KT 2SM -SHSN BR OVC015=

USA.gov is the U.S. government's official web portal to all federal, state and local government web resources and services.